Terminal Aerodrome Forecast
Issued by NWS

Home | Current Version | Previous Version | Text Only | Print | Product List | Glossary On
Versions: 1 2 3 4 5 6 7 8 9 10 11 12
000
FTPA31 PHFO 181125
TAFHJR
TAF
PHJR 181125Z 1812/1912 VRB05KT P6SM FEW040
     FM182100 12011KT P6SM FEW025 SCT040
     FM190500 VRB05KT P6SM FEW040=

USA.gov is the U.S. government's official web portal to all federal, state and local government web resources and services.